Terminal Aerodrome Forecast
Issued by NWS

Home | Current Version | Previous Version | Text Only | Print | Product List | Glossary On
Versions: 1 2 3 4 5 6 7 8 9 10 11 12 13 14 15 16 17 18 19 20 21 22 23 24 25
154
FTUS43 KDLH 190731 AAA
TAFBRD
TAF AMD
KBRD 190731Z 1908/2006 VRB03KT 3SM BR SKC
      TEMPO 1907/1912 1/2SM FG SCT003
     FM191700 17009G16KT P6SM SKC
     FM192000 18010KT P6SM VCSH BKN100=

USA.gov is the U.S. government's official web portal to all federal, state and local government web resources and services.